Time;durP1;ratioP1;P1;durP2;ratioP2;P2;SDS_P1;SDS_P2;PMS_P1;PMS_P2;Temp;Humidity;BMP_temperature;BMP_pressure;BME280_temperature;BME280_humidity;BME280_pressure;Samples;Min_cycle;Max_cycle;Signal;HPM_P1;HPM_P2
2023/06/14 00:01:49;;;;;;;6.05;1.42;;;;;;;16.18;100.00;98979.81;5157914;27;20119;-54
2023/06/14 00:04:16;;;;;;;5.53;1.75;;;;;;;15.75;100.00;98964.31;5158359;27;20138;-52
2023/06/14 00:06:44;;;;;;;3.38;1.35;;;;;;;16.08;100.00;98981.47;5158287;27;20103;-55
2023/06/14 00:09:11;;;;;;;2.35;1.33;;;;;;;16.02;100.00;98962.97;5158028;27;20047;-59
2023/06/14 00:11:37;;;;;;;2.60;1.33;;;;;;;15.84;100.00;98966.66;5158066;27;20106;-54
2023/06/14 00:14:03;;;;;;;3.03;1.50;;;;;;;15.94;100.00;98962.22;5157929;27;20138;-57
2023/06/14 00:16:30;;;;;;;3.17;1.25;;;;;;;15.94;100.00;98968.53;5158358;27;20088;-53
2023/06/14 00:18:56;;;;;;;2.70;1.58;;;;;;;16.16;100.00;98983.00;5157901;27;20076;-58
2023/06/14 00:21:22;;;;;;;2.95;1.55;;;;;;;15.91;100.00;98979.63;5157581;27;20480;-53
2023/06/14 00:23:48;;;;;;;4.68;1.70;;;;;;;16.12;100.00;98973.94;5157771;27;20050;-55
2023/06/14 00:26:14;;;;;;;4.97;2.35;;;;;;;15.98;100.00;98974.81;5158004;27;20368;-56
2023/06/14 00:28:41;;;;;;;2.85;1.40;;;;;;;16.07;100.00;98963.31;5157644;27;20092;-54
2023/06/14 00:31:06;;;;;;;4.75;1.92;;;;;;;15.82;100.00;98946.91;5157977;27;20058;-53
2023/06/14 00:33:32;;;;;;;6.85;2.05;;;;;;;15.93;100.00;98955.91;5157508;27;20051;-53
2023/06/14 00:35:58;;;;;;;5.50;1.60;;;;;;;16.05;100.00;98968.47;5157417;27;20055;-55
2023/06/14 00:38:24;;;;;;;11.93;2.20;;;;;;;15.77;100.00;98948.13;5158589;27;20050;-55
2023/06/14 00:40:51;;;;;;;3.50;1.55;;;;;;;15.77;100.00;98945.38;5161336;27;20143;-59
2023/06/14 00:43:17;;;;;;;1.63;1.52;;;;;;;15.72;100.00;98931.97;5161495;27;20050;-59
2023/06/14 00:45:44;;;;;;;1.60;1.30;;;;;;;15.79;100.00;98925.59;5161512;27;20137;-58
2023/06/14 00:48:11;;;;;;;7.95;1.58;;;;;;;15.72;100.00;98926.44;5161420;27;20046;-52
2023/06/14 00:50:38;;;;;;;7.03;1.70;;;;;;;15.63;100.00;98934.38;5161222;27;20051;-59
2023/06/14 00:53:04;;;;;;;7.28;1.38;;;;;;;15.85;100.00;98929.50;5161354;27;20050;-56
2023/06/14 00:55:30;;;;;;;4.38;1.70;;;;;;;15.67;100.00;98926.88;5160947;27;20050;-55
2023/06/14 00:57:56;;;;;;;6.57;1.75;;;;;;;15.86;100.00;98924.75;5161250;27;20053;-58
2023/06/14 01:00:22;;;;;;;7.30;1.60;;;;;;;15.84;100.00;98927.94;5160787;27;20046;-52
2023/06/14 01:02:49;;;;;;;2.40;1.50;;;;;;;15.84;100.00;98922.41;5160704;27;20051;-59
2023/06/14 01:05:16;;;;;;;5.38;1.67;;;;;;;15.75;100.00;98913.78;5160903;27;20051;-53
2023/06/14 01:08:05;;;;;;;5.57;1.52;;;;;;;15.69;100.00;98920.94;5160961;27;20153;-59
2023/06/14 01:10:37;;;;;;;4.30;1.63;;;;;;;15.80;100.00;98912.59;5161015;27;20327;-53
2023/06/14 01:13:11;;;;;;;3.22;1.90;;;;;;;15.75;100.00;98919.31;5160556;27;20553;-51
2023/06/14 01:15:38;;;;;;;3.22;1.50;;;;;;;15.83;100.00;98914.50;5160887;27;20042;-59
2023/06/14 01:18:05;;;;;;;7.47;1.60;;;;;;;15.87;100.00;98923.59;5160598;27;20133;-57
2023/06/14 01:20:36;;;;;;;5.57;1.75;;;;;;;15.64;100.00;98910.28;5160979;27;20053;-55
2023/06/14 01:23:03;;;;;;;3.33;1.80;;;;;;;15.73;100.00;98921.72;5161017;27;20042;-53
2023/06/14 01:25:29;;;;;;;2.55;1.92;;;;;;;15.74;100.00;98918.53;5160342;27;20046;-51
2023/06/14 01:27:58;;;;;;;3.75;2.45;;;;;;;15.78;100.00;98915.75;5160704;27;20098;-53
2023/06/14 01:30:26;;;;;;;3.85;1.83;;;;;;;15.41;100.00;98911.59;5160800;27;20047;-55
2023/06/14 01:32:54;;;;;;;3.00;1.80;;;;;;;15.48;100.00;98921.81;5160641;27;20536;-55
2023/06/14 01:35:20;;;;;;;2.80;1.67;;;;;;;15.61;100.00;98934.00;5160321;27;20046;-54
2023/06/14 01:37:48;;;;;;;5.05;2.05;;;;;;;15.48;100.00;98917.09;5160501;27;20424;-55
2023/06/14 01:40:15;;;;;;;4.78;1.90;;;;;;;15.42;100.00;98910.41;5160202;27;20473;-58
2023/06/14 01:42:42;;;;;;;4.38;1.85;;;;;;;15.57;100.00;98924.94;5160778;27;20054;-59
2023/06/14 01:45:10;;;;;;;6.78;3.15;;;;;;;15.64;100.00;98915.81;5160018;27;20190;-51
2023/06/14 01:47:36;;;;;;;6.53;2.13;;;;;;;15.46;100.00;98911.19;5160497;27;20408;-54
2023/06/14 01:50:02;;;;;;;4.90;1.90;;;;;;;15.52;100.00;98908.78;5160074;27;20138;-58
2023/06/14 01:52:28;;;;;;;5.18;2.22;;;;;;;15.46;100.00;98897.38;5159858;27;20390;-58
2023/06/14 01:54:54;;;;;;;7.40;2.28;;;;;;;15.53;100.00;98910.38;5160294;27;20082;-57
2023/06/14 01:57:22;;;;;;;3.38;1.92;;;;;;;15.38;100.00;98903.34;5160343;27;20043;-60
2023/06/14 01:59:48;;;;;;;4.30;2.00;;;;;;;15.54;100.00;98909.16;5160174;27;20141;-59
2023/06/14 02:02:14;;;;;;;7.85;2.20;;;;;;;15.38;100.00;98911.63;5159971;27;20054;-52
2023/06/14 02:04:40;;;;;;;3.80;1.98;;;;;;;15.69;100.00;98918.16;5159834;27;20061;-55
2023/06/14 02:07:06;;;;;;;13.27;3.97;;;;;;;15.33;100.00;98896.28;5159775;27;20412;-55
2023/06/14 02:09:32;;;;;;;5.05;2.40;;;;;;;15.41;100.00;98891.50;5160097;27;20051;-56
2023/06/14 02:11:58;;;;;;;6.82;2.47;;;;;;;15.54;100.00;98898.91;5159626;27;20446;-53
2023/06/14 02:14:24;;;;;;;6.00;2.40;;;;;;;15.56;100.00;98909.56;5160168;27;20050;-51
2023/06/14 02:16:50;;;;;;;5.20;2.45;;;;;;;15.32;100.00;98889.16;5159555;27;20146;-54
2023/06/14 02:19:16;;;;;;;4.00;2.65;;;;;;;15.45;100.00;98895.78;5160232;27;20050;-53
2023/06/14 02:21:42;;;;;;;5.00;2.40;;;;;;;15.72;100.00;98907.09;5159496;27;20054;-55
2023/06/14 02:24:08;;;;;;;8.85;1.90;;;;;;;15.45;100.00;98883.97;5159702;27;20051;-57
2023/06/14 02:26:34;;;;;;;3.20;2.35;;;;;;;15.49;100.00;98891.06;5159489;27;20472;-55
2023/06/14 02:29:00;;;;;;;4.78;2.17;;;;;;;15.64;100.00;98900.03;5159366;27;20050;-54
2023/06/14 02:31:27;;;;;;;4.75;2.40;;;;;;;15.51;100.00;98891.41;5159914;27;20146;-51
2023/06/14 02:33:53;;;;;;;6.90;2.33;;;;;;;15.58;100.00;98890.59;5159483;27;20058;-52
2023/06/14 02:36:20;;;;;;;8.98;2.03;;;;;;;15.23;100.00;98880.56;5159589;27;20047;-52
2023/06/14 02:38:46;;;;;;;7.63;2.20;;;;;;;15.38;100.00;98870.97;5159238;27;20046;-54
2023/06/14 02:41:12;;;;;;;15.32;2.13;;;;;;;15.60;100.00;98890.97;5159615;27;20142;-57
2023/06/14 02:43:39;;;;;;;2.17;1.75;;;;;;;15.58;100.00;98890.59;5159234;27;20074;-59
2023/06/14 02:46:05;;;;;;;3.80;1.80;;;;;;;15.53;100.00;98878.00;5159564;27;20050;-55
2023/06/14 02:48:31;;;;;;;2.47;2.08;;;;;;;15.60;100.00;98887.44;5159061;27;20047;-55
2023/06/14 02:50:57;;;;;;;3.92;2.53;;;;;;;15.51;100.00;98885.88;5159185;27;20133;-58
2023/06/14 02:53:23;;;;;;;6.53;1.90;;;;;;;15.78;100.00;98879.81;5159528;27;20399;-58
2023/06/14 02:55:49;;;;;;;3.78;1.80;;;;;;;15.78;100.00;98899.16;5159104;27;20145;-52
2023/06/14 02:58:15;;;;;;;5.35;1.98;;;;;;;15.39;100.00;98882.81;5159510;27;20047;-51
2023/06/14 03:00:42;;;;;;;4.90;1.80;;;;;;;15.59;100.00;98866.50;5158838;27;20126;-57
2023/06/14 03:03:13;;;;;;;9.10;2.08;;;;;;;15.59;100.00;98870.03;5158766;27;20058;-58
2023/06/14 03:05:45;;;;;;;3.00;1.92;;;;;;;15.41;100.00;98864.66;5158839;27;20067;-55
2023/06/14 03:08:16;;;;;;;3.13;2.05;;;;;;;15.60;100.00;98874.41;5159228;27;20390;-52
2023/06/14 03:10:43;;;;;;;4.90;2.42;;;;;;;15.75;100.00;98884.16;5158699;27;20074;-52
2023/06/14 03:13:10;;;;;;;4.75;2.42;;;;;;;15.90;100.00;98893.16;5159100;27;20050;-55
2023/06/14 03:15:36;;;;;;;6.13;2.17;;;;;;;15.85;100.00;98896.34;5159046;27;20050;-53
2023/06/14 03:18:03;;;;;;;4.15;2.17;;;;;;;15.72;100.00;98903.53;5158844;27;20320;-51
2023/06/14 03:20:32;;;;;;;3.92;2.42;;;;;;;15.75;100.00;98883.38;5158616;27;20456;-59
2023/06/14 03:22:59;;;;;;;4.97;1.95;;;;;;;15.93;100.00;98897.88;5158709;27;20077;-58
2023/06/14 03:25:29;;;;;;;6.32;2.45;;;;;;;15.77;100.00;98898.38;5158719;27;20054;-56
2023/06/14 03:27:55;;;;;;;7.85;2.10;;;;;;;15.84;100.00;98903.06;5158445;27;20141;-59
2023/06/14 03:30:21;;;;;;;4.38;2.22;;;;;;;16.11;100.00;98911.53;5158844;27;20046;-58
2023/06/14 03:32:47;;;;;;;7.25;2.33;;;;;;;16.01;100.00;98917.94;5158355;27;20053;-58
2023/06/14 03:35:16;;;;;;;6.70;2.83;;;;;;;15.76;100.00;98923.66;5158815;27;20047;-53
2023/06/14 03:37:42;;;;;;;9.35;2.45;;;;;;;15.98;100.00;98914.00;5158283;27;20069;-55
2023/06/14 03:40:11;;;;;;;11.70;2.30;;;;;;;16.16;100.00;98918.59;5158194;27;20050;-55
2023/06/14 03:42:37;;;;;;;5.22;2.30;;;;;;;16.16;100.00;98908.34;5158177;27;20054;-55
2023/06/14 03:45:03;;;;;;;5.43;2.63;;;;;;;16.04;100.00;98906.06;5158427;27;20133;-51
2023/06/14 03:47:29;;;;;;;13.63;2.50;;;;;;;16.09;100.00;98921.44;5158332;27;20096;-57
2023/06/14 03:49:55;;;;;;;4.45;2.28;;;;;;;15.98;100.00;98907.69;5158330;27;20055;-52
2023/06/14 03:52:22;;;;;;;4.18;3.00;;;;;;;16.27;100.00;98918.53;5158320;27;20058;-53
2023/06/14 03:54:48;;;;;;;6.22;2.17;;;;;;;16.27;100.00;98937.88;5158168;27;20050;-52
2023/06/14 03:57:14;;;;;;;7.40;3.15;;;;;;;16.13;100.00;98931.28;5158438;27;20091;-58
2023/06/14 03:59:41;;;;;;;5.78;2.05;;;;;;;16.24;100.00;98931.97;5158084;27;20381;-58
2023/06/14 04:02:07;;;;;;;4.38;2.25;;;;;;;16.25;100.00;98935.50;5158267;27;20066;-52
2023/06/14 04:04:35;;;;;;;9.32;2.58;;;;;;;16.45;100.00;98947.56;5157929;27;20050;-58
2023/06/14 04:07:03;;;;;;;8.32;3.33;;;;;;;16.30;100.00;98937.84;5157742;27;20058;-55
2023/06/14 04:09:29;;;;;;;4.15;2.60;;;;;;;16.21;100.00;98932.78;5157789;27;20091;-58
2023/06/14 04:11:55;;;;;;;3.13;2.08;;;;;;;16.61;100.00;98943.47;5157998;27;20098;-54
2023/06/14 04:14:22;;;;;;;8.00;3.42;;;;;;;16.62;100.00;98953.34;5160119;27;20054;-58
2023/06/14 04:16:49;;;;;;;9.00;3.42;;;;;;;16.47;100.00;98959.03;5161793;27;20057;-58
2023/06/14 04:19:15;;;;;;;4.30;2.22;;;;;;;16.67;100.00;98952.91;5161842;27;20476;-59
2023/06/14 04:21:41;;;;;;;3.22;2.38;;;;;;;16.45;100.00;98952.31;5161910;27;20385;-56
2023/06/14 04:24:12;;;;;;;9.82;2.67;;;;;;;16.49;100.00;98955.84;5161873;27;20054;-56
2023/06/14 04:26:39;;;;;;;8.98;3.10;;;;;;;16.68;100.00;98957.25;5161335;27;20057;-58
2023/06/14 04:29:05;;;;;;;4.65;2.20;;;;;;;16.45;100.00;98938.50;5161719;27;20071;-58
2023/06/14 04:31:33;;;;;;;9.65;2.80;;;;;;;16.67;100.00;98950.94;5160872;27;20058;-54
2023/06/14 04:33:59;;;;;;;6.85;2.38;;;;;;;16.53;100.00;98953.03;5161547;27;20046;-58
2023/06/14 04:36:26;;;;;;;6.72;2.03;;;;;;;16.67;100.00;98964.78;5161081;27;20065;-55
2023/06/14 04:38:54;;;;;;;8.23;2.28;;;;;;;16.60;100.00;98955.75;5161046;27;20042;-57
2023/06/14 04:41:20;;;;;;;4.40;2.03;;;;;;;16.67;100.00;98955.69;5161557;27;20320;-58
2023/06/14 04:43:48;;;;;;;9.40;2.45;;;;;;;16.54;100.00;98958.19;5161166;27;20078;-55
2023/06/14 04:46:14;;;;;;;4.88;2.53;;;;;;;16.68;100.00;98957.25;5161052;27;20043;-58
2023/06/14 04:48:42;;;;;;;13.18;4.13;;;;;;;16.64;100.00;98959.28;5161151;27;20050;-57
2023/06/14 04:51:09;;;;;;;7.60;2.53;;;;;;;16.50;100.00;98957.44;5161205;27;20134;-58
2023/06/14 04:53:35;;;;;;;5.25;1.90;;;;;;;16.58;100.00;98947.06;5160787;27;20044;-54
2023/06/14 04:56:01;;;;;;;7.50;2.70;;;;;;;16.31;100.00;98931.13;5161344;27;20365;-57
2023/06/14 04:58:27;;;;;;;4.55;2.58;;;;;;;16.54;100.00;98944.34;5160773;27;20145;-55
2023/06/14 05:00:53;;;;;;;8.38;2.25;;;;;;;16.79;100.00;98954.38;5161047;27;20297;-51
2023/06/14 05:03:20;;;;;;;12.15;2.72;;;;;;;16.66;100.00;98956.84;5160581;27;20085;-53
2023/06/14 05:05:47;;;;;;;5.68;2.78;;;;;;;16.70;100.00;98952.09;5161263;27;20046;-55
2023/06/14 05:08:13;;;;;;;6.28;2.33;;;;;;;16.85;100.00;98961.06;5160886;27;20065;-54
2023/06/14 05:10:39;;;;;;;3.90;2.08;;;;;;;16.97;100.00;98959.75;5160706;27;20074;-52
2023/06/14 05:13:05;;;;;;;8.50;3.58;;;;;;;16.78;100.00;98959.16;5160690;27;20272;-55
2023/06/14 05:15:31;;;;;;;3.72;2.33;;;;;;;16.99;100.00;98940.72;5160673;27;20507;-58
2023/06/14 05:17:57;;;;;;;7.80;2.03;;;;;;;17.17;100.00;98953.16;5160752;27;20404;-58
2023/06/14 05:20:24;;;;;;;3.60;2.10;;;;;;;17.12;100.00;98958.38;5160421;27;20051;-59
2023/06/14 05:22:52;;;;;;;3.35;2.10;;;;;;;17.06;100.00;98948.94;5160648;27;20319;-57
2023/06/14 05:25:18;;;;;;;4.93;2.05;;;;;;;16.85;100.00;98936.91;5159825;27;20050;-59
2023/06/14 05:27:44;;;;;;;5.93;2.22;;;;;;;17.12;100.00;98947.28;5160516;27;20055;-53
2023/06/14 05:30:11;;;;;;;4.97;2.00;;;;;;;17.27;100.00;98947.91;5160035;27;20082;-53
2023/06/14 05:32:37;;;;;;;7.53;2.83;;;;;;;17.23;100.00;98953.50;5160394;27;20133;-55
2023/06/14 05:35:04;;;;;;;4.53;1.80;;;;;;;17.42;100.00;98957.59;5159880;27;20046;-55
2023/06/14 05:37:30;;;;;;;3.60;2.00;;;;;;;17.32;100.00;98948.22;5160036;27;20153;-60
2023/06/14 05:39:57;;;;;;;7.03;2.22;;;;;;;17.34;100.00;98951.38;5160306;27;20058;-59
2023/06/14 05:42:23;;;;;;;6.18;1.95;;;;;;;17.04;100.00;98943.06;5160346;27;20054;-56
2023/06/14 05:44:49;;;;;;;12.27;2.63;;;;;;;17.31;100.00;98945.88;5160250;27;20141;-59
2023/06/14 05:47:15;;;;;;;8.57;2.58;;;;;;;17.04;100.00;98937.50;5159819;27;20047;-52
2023/06/14 05:49:41;;;;;;;9.45;2.58;;;;;;;17.38;100.00;98946.56;5160370;27;20053;-56
2023/06/14 05:52:08;;;;;;;7.72;2.65;;;;;;;17.44;100.00;98957.19;5159745;27;20051;-57
2023/06/14 05:54:34;;;;;;;5.43;2.08;;;;;;;17.17;100.00;98944.84;5160196;27;20316;-55
2023/06/14 05:57:01;;;;;;;8.05;2.03;;;;;;;16.96;100.00;98927.69;5159831;27;20082;-55
2023/06/14 05:59:27;;;;;;;3.15;1.92;;;;;;;17.38;100.00;98940.25;5160340;27;20058;-56
2023/06/14 06:01:53;;;;;;;6.93;3.00;;;;;;;17.44;100.00;98946.13;5159637;27;20137;-60
2023/06/14 06:04:19;;;;;;;3.92;2.00;;;;;;;17.54;100.00;98959.81;5160299;27;20057;-59
2023/06/14 06:06:46;;;;;;;3.67;2.25;;;;;;;17.52;100.00;98948.34;5159808;27;20384;-56
2023/06/14 06:09:14;;;;;;;4.30;2.17;;;;;;;17.77;100.00;98944.50;5159524;27;20050;-61
2023/06/14 06:11:40;;;;;;;5.38;2.35;;;;;;;17.82;100.00;98953.09;5159544;27;20059;-57
2023/06/14 06:14:06;;;;;;;3.92;2.17;;;;;;;17.91;100.00;98965.69;5159474;27;20389;-54
2023/06/14 06:16:32;;;;;;;5.07;1.83;;;;;;;17.39;100.00;98953.69;5159680;27;20187;-59
2023/06/14 06:18:58;;;;;;;3.20;2.08;;;;;;;17.51;100.00;98948.78;5159476;27;20047;-53
2023/06/14 06:21:24;;;;;;;15.38;2.30;;;;;;;17.77;100.00;98959.13;5159666;27;20061;-54
2023/06/14 06:23:50;;;;;;;9.75;2.40;;;;;;;17.37;100.00;98955.31;5159082;27;20228;-56
2023/06/14 06:26:16;;;;;;;5.78;2.40;;;;;;;17.57;100.00;98966.53;5159735;27;20086;-57
2023/06/14 06:28:42;;;;;;;2.35;1.90;;;;;;;17.66;100.00;98972.34;5159502;27;20115;-59
2023/06/14 06:31:09;;;;;;;7.82;2.13;;;;;;;17.55;100.00;98952.28;5159466;27;20054;-62
2023/06/14 06:33:36;;;;;;;7.70;2.63;;;;;;;17.81;100.00;98972.94;5159017;27;20115;-59
2023/06/14 06:36:02;;;;;;;8.40;2.33;;;;;;;18.02;100.00;98982.94;5158159;27;20099;-58
2023/06/14 06:38:28;;;;;;;5.70;3.08;;;;;;;17.63;100.00;98975.94;5159621;27;20061;-57
2023/06/14 06:40:54;;;;;;;2.85;2.13;;;;;;;17.65;100.00;98977.06;5159139;27;20141;-58
2023/06/14 06:43:20;;;;;;;3.70;1.73;;;;;;;17.67;100.00;98973.91;5159321;27;20184;-57
2023/06/14 06:45:46;;;;;;;5.88;2.17;;;;;;;18.24;100.00;98986.16;5158927;27;20046;-56
2023/06/14 06:48:13;;;;;;;11.93;2.55;;;;;;;18.10;100.00;98984.41;5159325;27;20066;-55
2023/06/14 06:50:39;;;;;;;11.30;2.53;;;;;;;17.94;100.00;98993.34;5159009;27;20055;-57
2023/06/14 06:53:06;;;;;;;9.43;2.20;;;;;;;17.96;100.00;98973.50;5159140;27;20307;-59
2023/06/14 06:55:32;;;;;;;12.73;3.80;;;;;;;17.85;100.00;98962.56;5158637;27;20391;-56
2023/06/14 06:57:59;;;;;;;7.95;2.53;;;;;;;17.90;100.00;98964.91;5159279;27;20050;-57
2023/06/14 07:00:25;;;;;;;3.53;2.20;;;;;;;18.32;100.00;98963.41;5158610;27;20058;-53
2023/06/14 07:02:52;;;;;;;6.30;2.35;;;;;;;18.15;100.00;98972.03;5159029;27;20054;-56
2023/06/14 07:05:18;;;;;;;8.40;2.42;;;;;;;18.02;100.00;98963.50;5158678;27;20204;-54
2023/06/14 07:07:44;;;;;;;5.57;2.47;;;;;;;18.07;100.00;98951.94;5158668;27;20064;-59
2023/06/14 07:10:10;;;;;;;10.55;2.90;;;;;;;18.53;100.00;98967.06;5158841;27;20043;-57
2023/06/14 07:12:39;;;;;;;4.20;2.25;;;;;;;18.69;100.00;98969.13;5158884;27;20050;-56
2023/06/14 07:15:06;;;;;;;9.77;3.13;;;;;;;18.37;100.00;98989.13;5158780;27;20047;-62
2023/06/14 07:17:33;;;;;;;12.15;3.05;;;;;;;18.42;100.00;98971.97;5158467;27;20047;-63
2023/06/14 07:20:00;;;;;;;13.20;2.47;;;;;;;18.67;100.00;98961.25;5158638;27;20056;-53
2023/06/14 07:22:27;;;;;;;5.68;2.10;;;;;;;18.43;100.00;98990.22;5158495;27;20055;-61
2023/06/14 07:24:53;;;;;;;11.38;2.03;;;;;;;18.28;100.00;98957.13;5158989;27;20137;-59
2023/06/14 07:27:19;;;;;;;5.25;2.22;;;;;;;18.49;100.00;98961.56;5158219;27;20043;-60
2023/06/14 07:29:45;;;;;;;10.40;2.85;;;;;;;19.07;100.00;98961.31;5158641;27;20050;-63
2023/06/14 07:32:10;;;;;;;7.68;2.45;;;;;;;19.28;100.00;98980.31;5157870;27;20411;-61
2023/06/14 07:34:36;;;;;;;7.93;2.30;;;;;;;19.04;100.00;98973.28;5158047;27;20091;-61
2023/06/14 07:37:03;;;;;;;7.50;2.35;;;;;;;18.90;100.00;98977.09;5158384;27;20055;-60
2023/06/14 07:39:29;;;;;;;14.80;2.63;;;;;;;19.27;100.00;98984.31;5158198;27;20138;-58
2023/06/14 07:41:55;;;;;;;7.05;2.50;;;;;;;19.07;100.00;98996.66;5158256;27;20191;-55
2023/06/14 07:44:21;;;;;;;7.40;2.60;;;;;;;19.37;100.00;98987.31;5158088;27;20091;-54
2023/06/14 07:46:49;;;;;;;7.20;2.67;;;;;;;19.45;100.00;98992.28;5158118;27;20046;-58
2023/06/14 07:49:15;;;;;;;7.75;2.63;;;;;;;20.05;100.00;98988.63;5157634;27;20062;-64
2023/06/14 07:51:41;;;;;;;7.65;1.80;;;;;;;20.28;100.00;99001.59;5158097;27;20114;-58
2023/06/14 07:54:08;;;;;;;3.00;2.10;;;;;;;19.19;100.00;98991.25;5157699;27;20127;-52
2023/06/14 07:56:35;;;;;;;9.57;2.47;;;;;;;19.98;100.00;99006.25;5158157;27;20372;-56
2023/06/14 07:59:01;;;;;;;10.85;2.13;;;;;;;19.82;100.00;99007.00;5157567;27;20042;-61
2023/06/14 08:01:28;;;;;;;3.22;2.03;;;;;;;20.21;100.00;99013.69;5157855;27;20511;-61
2023/06/14 08:03:54;;;;;;;12.43;2.65;;;;;;;20.16;100.00;98998.31;5157635;27;20056;-62
2023/06/14 08:06:19;;;;;;;10.30;2.30;;;;;;;20.13;100.00;99015.09;5157690;27;20397;-59
2023/06/14 08:08:45;;;;;;;10.30;2.55;;;;;;;20.19;100.00;99014.13;5157822;27;20058;-54
2023/06/14 08:11:12;;;;;;;7.03;2.47;;;;;;;20.63;100.00;99025.81;5157625;27;20380;-57
2023/06/14 08:13:38;;;;;;;10.90;2.60;;;;;;;20.20;100.00;99028.84;5157862;27;20188;-61
2023/06/14 08:16:05;;;;;;;7.78;2.55;;;;;;;19.67;100.00;99025.25;5157518;27;20057;-54
2023/06/14 08:18:31;;;;;;;10.25;2.45;;;;;;;19.78;100.00;99013.88;5157881;27;20062;-61
2023/06/14 08:20:57;;;;;;;9.90;2.10;;;;;;;20.40;100.00;99010.03;5157294;27;20574;-61
2023/06/14 08:23:23;;;;;;;7.18;2.90;;;;;;;20.50;100.00;99029.72;5157860;27;20412;-64
2023/06/14 08:25:49;;;;;;;9.00;2.70;;;;;;;20.03;100.00;99019.69;5157252;27;20046;-64
2023/06/14 08:28:15;;;;;;;5.15;2.28;;;;;;;20.54;100.00;99017.28;5157806;27;20068;-53
2023/06/14 08:30:43;;;;;;;6.80;2.50;;;;;;;20.99;100.00;99021.31;5157209;27;20146;-56
2023/06/14 08:33:08;;;;;;;9.82;2.22;;;;;;;20.95;100.00;99015.06;5157310;27;20051;-58
2023/06/14 08:35:36;;;;;;;6.28;2.55;;;;;;;20.98;100.00;99020.53;5157500;27;20187;-58
2023/06/14 08:38:03;;;;;;;4.22;2.35;;;;;;;20.96;100.00;99011.03;5157229;27;20042;-62
2023/06/14 08:40:31;;;;;;;17.00;3.10;;;;;;;20.82;98.57;99018.56;5157569;27;20053;-53
2023/06/14 08:42:56;;;;;;;11.07;2.25;;;;;;;21.09;98.69;99020.22;5157204;27;20446;-63
2023/06/14 08:45:24;;;;;;;8.75;2.78;;;;;;;20.78;100.00;99011.53;5157614;27;20043;-57
2023/06/14 08:47:52;;;;;;;6.05;2.65;;;;;;;21.12;100.00;98999.84;5157010;27;20047;-61
2023/06/14 08:50:21;;;;;;;12.23;2.67;;;;;;;21.00;100.00;98995.81;5157431;27;20058;-55
2023/06/14 08:52:52;;;;;;;4.80;2.67;;;;;;;21.16;100.00;98997.75;5156960;27;20047;-62
2023/06/14 08:55:19;;;;;;;8.77;2.88;;;;;;;21.25;100.00;99003.47;5157516;27;20461;-58
2023/06/14 08:57:47;;;;;;;5.07;2.63;;;;;;;21.72;98.59;99005.72;5157380;27;20372;-63
2023/06/14 09:00:14;;;;;;;9.60;2.53;;;;;;;22.33;97.22;99009.47;5159002;27;20058;-59
2023/06/14 09:02:43;;;;;;;14.40;3.50;;;;;;;21.71;99.87;99001.38;5160930;27;20054;-58
2023/06/14 09:05:10;;;;;;;9.48;3.65;;;;;;;22.28;97.82;99005.19;5160645;27;20058;-55
2023/06/14 09:07:38;;;;;;;7.43;2.90;;;;;;;22.38;97.90;99002.50;5160391;27;20107;-63
2023/06/14 09:10:09;;;;;;;12.77;3.70;;;;;;;22.47;100.00;98997.81;5160410;27;20080;-54
2023/06/14 09:12:35;;;;;;;20.92;2.90;;;;;;;22.95;96.57;99003.41;5160428;27;20404;-56
2023/06/14 09:15:05;;;;;;;11.45;3.25;;;;;;;23.10;96.15;98992.50;5160298;27;20046;-57
2023/06/14 09:17:33;;;;;;;11.48;3.13;;;;;;;23.84;90.80;98999.38;5160588;27;20047;-53
2023/06/14 09:19:59;;;;;;;8.60;2.58;;;;;;;24.05;87.35;99003.34;5159987;27;20412;-54
2023/06/14 09:22:26;;;;;;;7.13;2.65;;;;;;;24.23;85.31;99017.41;5160584;27;20050;-59
2023/06/14 09:24:51;;;;;;;19.98;2.88;;;;;;;23.59;90.56;99003.06;5160431;27;20133;-61
2023/06/14 09:27:17;;;;;;;12.57;3.60;;;;;;;24.19;89.21;99005.56;5160357;27;20434;-59
2023/06/14 09:29:43;;;;;;;10.88;3.92;;;;;;;24.34;86.63;99000.94;5160414;27;20092;-56
2023/06/14 09:32:10;;;;;;;7.90;3.72;;;;;;;23.83;89.98;98998.59;5160233;27;20368;-58
2023/06/14 09:34:37;;;;;;;8.15;3.50;;;;;;;24.05;90.07;98994.94;5160430;27;20114;-57
2023/06/14 09:37:04;;;;;;;9.70;3.35;;;;;;;23.74;95.10;98987.34;5159950;27;20134;-57
2023/06/14 09:39:31;;;;;;;9.35;3.67;;;;;;;24.87;89.32;98997.94;5160225;27;20043;-56
2023/06/14 09:41:57;;;;;;;16.90;3.10;;;;;;;24.41;89.80;98988.69;5160302;27;20196;-56
2023/06/14 09:44:28;;;;;;;7.95;3.15;;;;;;;24.03;93.93;98994.63;5160368;27;20066;-54
2023/06/14 09:46:56;;;;;;;6.93;3.03;;;;;;;23.54;97.64;98978.50;5160147;27;20050;-61
2023/06/14 09:49:22;;;;;;;7.80;3.00;;;;;;;23.86;95.15;98978.06;5160270;27;20137;-57
2023/06/14 09:51:51;;;;;;;9.07;2.72;;;;;;;23.88;94.45;98997.19;5160007;27;20058;-53
2023/06/14 09:54:22;;;;;;;6.47;2.88;;;;;;;24.33;91.79;98982.59;5159566;27;20149;-56
2023/06/14 09:56:52;;;;;;;12.65;3.17;;;;;;;25.35;85.56;98995.47;5160013;27;20047;-61
2023/06/14 09:59:26;;;;;;;4.43;2.60;;;;;;;25.61;82.67;99005.56;5159613;27;20490;-60
2023/06/14 10:01:57;;;;;;;6.15;2.50;;;;;;;25.30;84.14;99001.72;5159764;27;20396;-61
2023/06/14 10:04:24;;;;;;;7.82;2.40;;;;;;;25.53;78.83;98994.66;5159412;27;20138;-55
2023/06/14 10:06:52;;;;;;;16.83;2.70;;;;;;;25.19;78.38;98997.81;5159945;27;20304;-55
2023/06/14 10:09:19;;;;;;;4.85;2.33;;;;;;;25.30;76.59;99020.59;5159551;27;20055;-60
2023/06/14 10:11:46;;;;;;;4.80;2.42;;;;;;;24.97;79.86;99000.78;5159663;27;20057;-63
2023/06/14 10:14:14;;;;;;;7.45;3.25;;;;;;;24.93;82.62;99003.72;5159307;27;20050;-58
2023/06/14 10:16:49;;;;;;;7.85;2.88;;;;;;;25.39;81.03;98998.13;5159264;27;20444;-59
2023/06/14 10:19:20;;;;;;;6.80;2.70;;;;;;;25.07;80.69;99007.94;5159408;27;20317;-58
2023/06/14 10:21:55;;;;;;;9.13;2.75;;;;;;;25.85;80.61;98998.03;5159384;27;20069;-62
2023/06/14 10:24:29;;;;;;;7.95;3.08;;;;;;;25.22;83.59;99000.47;5159449;27;20046;-63
2023/06/14 10:26:57;;;;;;;3.90;2.58;;;;;;;25.24;83.36;98983.94;5159262;27;20138;-53
2023/06/14 10:29:24;;;;;;;8.20;2.60;;;;;;;24.98;84.10;98994.69;5159703;27;20047;-55
2023/06/14 10:31:55;;;;;;;8.45;2.88;;;;;;;24.51;89.00;98981.09;5159106;27;20050;-58
2023/06/14 10:34:23;;;;;;;7.00;2.80;;;;;;;24.59;89.54;98985.94;5159592;27;20319;-58
2023/06/14 10:37:01;;;;;;;4.90;3.03;;;;;;;24.55;92.15;98971.28;5159391;27;20293;-55
2023/06/14 10:39:27;;;;;;;6.78;2.97;;;;;;;24.45;90.30;98980.16;5159233;27;20409;-58
2023/06/14 10:41:54;;;;;;;7.63;2.70;;;;;;;23.80;93.18;98970.75;5159198;27;20137;-56
2023/06/14 10:44:51;;;;;;;6.97;2.63;;;;;;;24.19;94.38;98960.75;5158998;27;20146;-60
2023/06/14 10:47:28;;;;;;;5.93;2.92;;;;;;;24.50;90.34;98966.31;5159292;27;20062;-58
2023/06/14 10:49:55;;;;;;;4.68;2.40;;;;;;;24.33;91.49;98962.97;5158866;27;20174;-63
2023/06/14 10:52:23;;;;;;;7.82;3.30;;;;;;;24.32;91.91;98955.03;5158989;27;20318;-58
2023/06/14 10:55:10;;;;;;;9.10;3.45;;;;;;;23.69;99.95;98954.34;5158684;27;20419;-55
2023/06/14 10:57:38;;;;;;;9.98;2.67;;;;;;;23.27;100.00;98942.75;5158704;27;20487;-57
2023/06/14 11:00:12;;;;;;;4.45;3.00;;;;;;;23.37;100.00;98922.78;5158749;27;20061;-56
2023/06/14 11:03:23;;;;;;;4.65;2.35;;;;;;;23.37;100.00;98919.97;5158735;27;20054;-53
2023/06/14 11:05:52;;;;;;;3.75;1.98;;;;;;;23.56;100.00;98920.84;5158964;27;20046;-56
2023/06/14 11:08:39;;;;;;;5.28;3.15;;;;;;;23.22;100.00;98930.91;5158491;27;20104;-55
2023/06/14 11:11:07;;;;;;;3.70;2.53;;;;;;;22.87;100.00;98926.59;5158623;27;20051;-60
2023/06/14 11:13:33;;;;;;;11.23;2.13;;;;;;;23.20;100.00;98927.03;5158437;27;20055;-60
2023/06/14 11:16:00;;;;;;;10.68;3.00;;;;;;;23.45;100.00;98938.03;5158394;27;20138;-56
2023/06/14 11:18:27;;;;;;;5.38;3.03;;;;;;;24.13;98.43;98943.03;5159013;27;20168;-60
2023/06/14 11:20:53;;;;;;;6.35;1.90;;;;;;;23.78;96.28;98950.81;5158384;27;20141;-55
2023/06/14 11:23:21;;;;;;;5.93;2.45;;;;;;;24.49;95.15;98955.56;5158046;27;20082;-56
2023/06/14 11:25:50;;;;;;;5.50;2.20;;;;;;;24.42;88.79;98968.63;5158368;27;20057;-60
2023/06/14 11:28:16;;;;;;;7.70;2.80;;;;;;;24.20;91.22;98965.13;5158620;27;20099;-54